sensor_id;sensor_type;location;lat;lon;timestamp;P1;durP1;ratioP1;P2;durP2;ratioP2
76955;SDS011;65894;53.206;-6.108;2023-03-01T00:01:25;7.03;;;1.20;;
76955;SDS011;65894;53.206;-6.108;2023-03-01T00:03:53;6.07;;;1.08;;
76955;SDS011;65894;53.206;-6.108;2023-03-01T00:06:20;7.75;;;1.10;;
76955;SDS011;65894;53.206;-6.108;2023-03-01T00:08:46;5.10;;;0.90;;
76955;SDS011;65894;53.206;-6.108;2023-03-01T00:11:14;10.50;;;1.70;;
76955;SDS011;65894;53.206;-6.108;2023-03-01T00:13:45;3.22;;;0.82;;
76955;SDS011;65894;53.206;-6.108;2023-03-01T00:16:13;5.70;;;1.00;;
76955;SDS011;65894;53.206;-6.108;2023-03-01T00:18:40;5.88;;;0.93;;
76955;SDS011;65894;53.206;-6.108;2023-03-01T00:21:06;6.30;;;0.95;;
76955;SDS011;65894;53.206;-6.108;2023-03-01T00:23:33;4.30;;;0.73;;
76955;SDS011;65894;53.206;-6.108;2023-03-01T00:26:00;4.43;;;0.98;;
76955;SDS011;65894;53.206;-6.108;2023-03-01T00:28:25;7.00;;;1.02;;
76955;SDS011;65894;53.206;-6.108;2023-03-01T00:30:51;4.18;;;1.15;;
76955;SDS011;65894;53.206;-6.108;2023-03-01T00:33:17;7.50;;;0.90;;
76955;SDS011;65894;53.206;-6.108;2023-03-01T00:35:43;4.18;;;0.90;;
76955;SDS011;65894;53.206;-6.108;2023-03-01T00:38:08;4.18;;;1.02;;
76955;SDS011;65894;53.206;-6.108;2023-03-01T00:40:34;3.50;;;0.73;;
76955;SDS011;65894;53.206;-6.108;2023-03-01T00:43:01;4.03;;;0.95;;
76955;SDS011;65894;53.206;-6.108;2023-03-01T00:45:27;4.70;;;0.77;;
76955;SDS011;65894;53.206;-6.108;2023-03-01T00:47:53;4.97;;;0.65;;
76955;SDS011;65894;53.206;-6.108;2023-03-01T00:50:19;3.45;;;0.70;;
76955;SDS011;65894;53.206;-6.108;2023-03-01T00:52:45;4.93;;;0.80;;
76955;SDS011;65894;53.206;-6.108;2023-03-01T00:55:11;4.43;;;0.63;;
76955;SDS011;65894;53.206;-6.108;2023-03-01T00:57:37;4.05;;;0.65;;
76955;SDS011;65894;53.206;-6.108;2023-03-01T01:00:06;4.32;;;1.10;;
76955;SDS011;65894;53.206;-6.108;2023-03-01T01:02:34;2.85;;;0.52;;
76955;SDS011;65894;53.206;-6.108;2023-03-01T01:05:00;3.15;;;0.52;;
76955;SDS011;65894;53.206;-6.108;2023-03-01T01:07:26;4.90;;;0.80;;
76955;SDS011;65894;53.206;-6.108;2023-03-01T01:09:51;3.78;;;0.60;;
76955;SDS011;65894;53.206;-6.108;2023-03-01T01:12:17;2.78;;;0.55;;
76955;SDS011;65894;53.206;-6.108;2023-03-01T01:14:42;2.63;;;0.52;;
76955;SDS011;65894;53.206;-6.108;2023-03-01T01:17:08;3.63;;;0.52;;
76955;SDS011;65894;53.206;-6.108;2023-03-01T01:19:34;5.07;;;0.80;;
76955;SDS011;65894;53.206;-6.108;2023-03-01T01:21:59;2.53;;;0.60;;
76955;SDS011;65894;53.206;-6.108;2023-03-01T01:24:25;2.90;;;0.60;;
76955;SDS011;65894;53.206;-6.108;2023-03-01T01:26:50;3.58;;;0.95;;
76955;SDS011;65894;53.206;-6.108;2023-03-01T01:29:16;3.72;;;0.75;;
76955;SDS011;65894;53.206;-6.108;2023-03-01T01:31:42;3.90;;;0.70;;
76955;SDS011;65894;53.206;-6.108;2023-03-01T01:34:11;2.80;;;0.57;;
76955;SDS011;65894;53.206;-6.108;2023-03-01T01:36:42;1.52;;;0.40;;
76955;SDS011;65894;53.206;-6.108;2023-03-01T01:39:08;3.78;;;0.77;;
76955;SDS011;65894;53.206;-6.108;2023-03-01T01:44:18;4.50;;;0.73;;
76955;SDS011;65894;53.206;-6.108;2023-03-01T01:51:45;2.33;;;0.47;;
76955;SDS011;65894;53.206;-6.108;2023-03-01T01:54:20;2.55;;;0.43;;
76955;SDS011;65894;53.206;-6.108;2023-03-01T01:56:58;3.72;;;0.50;;
76955;SDS011;65894;53.206;-6.108;2023-03-01T01:59:31;1.85;;;0.45;;
76955;SDS011;65894;53.206;-6.108;2023-03-01T02:01:59;3.00;;;0.80;;
76955;SDS011;65894;53.206;-6.108;2023-03-01T02:06:58;1.13;;;0.30;;
76955;SDS011;65894;53.206;-6.108;2023-03-01T02:09:30;2.47;;;0.43;;
76955;SDS011;65894;53.206;-6.108;2023-03-01T02:11:57;2.17;;;0.50;;
76955;SDS011;65894;53.206;-6.108;2023-03-01T02:14:24;2.42;;;0.70;;
76955;SDS011;65894;53.206;-6.108;2023-03-01T02:16:49;1.77;;;0.40;;
76955;SDS011;65894;53.206;-6.108;2023-03-01T02:22:08;2.42;;;0.68;;
76955;SDS011;65894;53.206;-6.108;2023-03-01T02:30:33;1.52;;;0.40;;
76955;SDS011;65894;53.206;-6.108;2023-03-01T02:32:59;2.45;;;0.57;;
76955;SDS011;65894;53.206;-6.108;2023-03-01T02:35:29;1.63;;;0.30;;
76955;SDS011;65894;53.206;-6.108;2023-03-01T02:38:01;1.10;;;0.32;;
76955;SDS011;65894;53.206;-6.108;2023-03-01T02:40:30;1.58;;;0.30;;
76955;SDS011;65894;53.206;-6.108;2023-03-01T02:42:58;2.42;;;0.30;;
76955;SDS011;65894;53.206;-6.108;2023-03-01T02:45:25;3.03;;;0.50;;
76955;SDS011;65894;53.206;-6.108;2023-03-01T02:47:55;4.03;;;0.88;;
76955;SDS011;65894;53.206;-6.108;2023-03-01T02:50:25;2.72;;;0.40;;
76955;SDS011;65894;53.206;-6.108;2023-03-01T02:53:22;3.08;;;0.52;;
76955;SDS011;65894;53.206;-6.108;2023-03-01T02:55:57;1.98;;;0.30;;
76955;SDS011;65894;53.206;-6.108;2023-03-01T02:58:24;3.05;;;0.30;;
76955;SDS011;65894;53.206;-6.108;2023-03-01T03:00:50;1.77;;;0.40;;
76955;SDS011;65894;53.206;-6.108;2023-03-01T03:03:16;1.88;;;0.35;;
76955;SDS011;65894;53.206;-6.108;2023-03-01T03:05:44;1.63;;;0.35;;
76955;SDS011;65894;53.206;-6.108;2023-03-01T03:08:09;1.25;;;0.30;;
76955;SDS011;65894;53.206;-6.108;2023-03-01T03:10:37;3.70;;;0.70;;
76955;SDS011;65894;53.206;-6.108;2023-03-01T03:13:06;1.88;;;0.35;;
76955;SDS011;65894;53.206;-6.108;2023-03-01T03:15:33;1.73;;;0.50;;
76955;SDS011;65894;53.206;-6.108;2023-03-01T03:18:04;2.22;;;0.43;;
76955;SDS011;65894;53.206;-6.108;2023-03-01T03:20:33;1.75;;;0.30;;
76955;SDS011;65894;53.206;-6.108;2023-03-01T03:22:59;1.77;;;0.28;;
76955;SDS011;65894;53.206;-6.108;2023-03-01T03:25:26;2.65;;;0.50;;
76955;SDS011;65894;53.206;-6.108;2023-03-01T03:27:52;1.05;;;0.32;;
76955;SDS011;65894;53.206;-6.108;2023-03-01T03:30:22;1.52;;;0.40;;
76955;SDS011;65894;53.206;-6.108;2023-03-01T03:32:56;3.30;;;0.60;;
76955;SDS011;65894;53.206;-6.108;2023-03-01T03:37:55;1.75;;;0.43;;
76955;SDS011;65894;53.206;-6.108;2023-03-01T03:40:29;2.15;;;0.40;;
76955;SDS011;65894;53.206;-6.108;2023-03-01T03:42:59;1.45;;;0.55;;
76955;SDS011;65894;53.206;-6.108;2023-03-01T03:45:25;1.90;;;0.35;;
76955;SDS011;65894;53.206;-6.108;2023-03-01T03:47:50;0.52;;;0.15;;
76955;SDS011;65894;53.206;-6.108;2023-03-01T03:50:17;1.27;;;0.30;;
76955;SDS011;65894;53.206;-6.108;2023-03-01T03:52:42;1.45;;;0.32;;
76955;SDS011;65894;53.206;-6.108;2023-03-01T03:55:10;1.50;;;0.22;;
76955;SDS011;65894;53.206;-6.108;2023-03-01T03:57:37;1.88;;;0.35;;
76955;SDS011;65894;53.206;-6.108;2023-03-01T04:00:04;1.42;;;0.50;;
76955;SDS011;65894;53.206;-6.108;2023-03-01T04:02:37;3.05;;;0.50;;
76955;SDS011;65894;53.206;-6.108;2023-03-01T04:05:06;1.58;;;0.30;;
76955;SDS011;65894;53.206;-6.108;2023-03-01T04:07:33;2.25;;;0.35;;
76955;SDS011;65894;53.206;-6.108;2023-03-01T04:09:59;1.77;;;0.22;;
76955;SDS011;65894;53.206;-6.108;2023-03-01T04:12:25;0.95;;;0.30;;
76955;SDS011;65894;53.206;-6.108;2023-03-01T04:14:50;2.17;;;0.30;;
76955;SDS011;65894;53.206;-6.108;2023-03-01T04:17:16;1.80;;;0.25;;
76955;SDS011;65894;53.206;-6.108;2023-03-01T04:19:41;1.70;;;0.40;;
76955;SDS011;65894;53.206;-6.108;2023-03-01T04:22:09;2.20;;;0.28;;
76955;SDS011;65894;53.206;-6.108;2023-03-01T04:24:36;1.60;;;0.38;;
76955;SDS011;65894;53.206;-6.108;2023-03-01T04:27:01;0.98;;;0.30;;
76955;SDS011;65894;53.206;-6.108;2023-03-01T04:29:27;2.22;;;0.45;;
76955;SDS011;65894;53.206;-6.108;2023-03-01T04:31:53;0.57;;;0.30;;
76955;SDS011;65894;53.206;-6.108;2023-03-01T04:34:19;1.15;;;0.20;;
76955;SDS011;65894;53.206;-6.108;2023-03-01T04:36:44;1.45;;;0.25;;
76955;SDS011;65894;53.206;-6.108;2023-03-01T04:39:10;1.63;;;0.35;;
76955;SDS011;65894;53.206;-6.108;2023-03-01T04:41:37;1.85;;;0.22;;
76955;SDS011;65894;53.206;-6.108;2023-03-01T04:44:04;1.83;;;0.57;;
76955;SDS011;65894;53.206;-6.108;2023-03-01T04:46:30;2.28;;;0.38;;
76955;SDS011;65894;53.206;-6.108;2023-03-01T04:48:55;2.17;;;0.30;;
76955;SDS011;65894;53.206;-6.108;2023-03-01T04:51:21;0.85;;;0.22;;
76955;SDS011;65894;53.206;-6.108;2023-03-01T04:53:47;2.63;;;0.38;;
76955;SDS011;65894;53.206;-6.108;2023-03-01T04:56:12;0.77;;;0.30;;
76955;SDS011;65894;53.206;-6.108;2023-03-01T04:58:38;1.83;;;0.40;;
76955;SDS011;65894;53.206;-6.108;2023-03-01T05:01:11;2.35;;;0.35;;
76955;SDS011;65894;53.206;-6.108;2023-03-01T05:03:42;1.77;;;0.20;;
76955;SDS011;65894;53.206;-6.108;2023-03-01T05:06:12;1.65;;;0.35;;
76955;SDS011;65894;53.206;-6.108;2023-03-01T05:08:39;1.42;;;0.28;;
76955;SDS011;65894;53.206;-6.108;2023-03-01T05:11:06;0.98;;;0.20;;
76955;SDS011;65894;53.206;-6.108;2023-03-01T05:13:34;1.40;;;0.20;;
76955;SDS011;65894;53.206;-6.108;2023-03-01T05:16:01;2.10;;;0.30;;
76955;SDS011;65894;53.206;-6.108;2023-03-01T05:18:28;2.88;;;0.40;;
76955;SDS011;65894;53.206;-6.108;2023-03-01T05:21:05;1.05;;;0.25;;
76955;SDS011;65894;53.206;-6.108;2023-03-01T05:23:32;1.85;;;0.30;;
76955;SDS011;65894;53.206;-6.108;2023-03-01T05:25:59;1.40;;;0.30;;
76955;SDS011;65894;53.206;-6.108;2023-03-01T05:28:25;0.43;;;0.30;;
76955;SDS011;65894;53.206;-6.108;2023-03-01T05:30:51;2.13;;;0.30;;
76955;SDS011;65894;53.206;-6.108;2023-03-01T05:33:17;1.58;;;0.30;;
76955;SDS011;65894;53.206;-6.108;2023-03-01T05:35:44;0.90;;;0.22;;
76955;SDS011;65894;53.206;-6.108;2023-03-01T05:38:10;0.52;;;0.20;;
76955;SDS011;65894;53.206;-6.108;2023-03-01T05:40:40;1.00;;;0.32;;
76955;SDS011;65894;53.206;-6.108;2023-03-01T05:43:06;2.42;;;0.32;;
76955;SDS011;65894;53.206;-6.108;2023-03-01T05:45:32;1.27;;;0.25;;
76955;SDS011;65894;53.206;-6.108;2023-03-01T05:47:58;1.08;;;0.30;;
76955;SDS011;65894;53.206;-6.108;2023-03-01T05:50:26;2.45;;;0.45;;
76955;SDS011;65894;53.206;-6.108;2023-03-01T05:53:35;2.08;;;0.32;;
76955;SDS011;65894;53.206;-6.108;2023-03-01T05:55:44;0.95;;;0.30;;
76955;SDS011;65894;53.206;-6.108;2023-03-01T05:58:21;1.77;;;0.40;;
76955;SDS011;65894;53.206;-6.108;2023-03-01T06:00:48;2.13;;;0.20;;
76955;SDS011;65894;53.206;-6.108;2023-03-01T06:03:15;1.75;;;0.30;;
76955;SDS011;65894;53.206;-6.108;2023-03-01T06:05:41;3.30;;;0.55;;
76955;SDS011;65894;53.206;-6.108;2023-03-01T06:08:08;1.23;;;0.50;;
76955;SDS011;65894;53.206;-6.108;2023-03-01T06:10:35;2.78;;;0.43;;
76955;SDS011;65894;53.206;-6.108;2023-03-01T06:13:00;1.10;;;0.32;;
76955;SDS011;65894;53.206;-6.108;2023-03-01T06:15:26;2.08;;;0.43;;
76955;SDS011;65894;53.206;-6.108;2023-03-01T06:17:53;2.53;;;0.38;;
76955;SDS011;65894;53.206;-6.108;2023-03-01T06:20:21;1.48;;;0.20;;
76955;SDS011;65894;53.206;-6.108;2023-03-01T06:22:48;3.95;;;0.60;;
76955;SDS011;65894;53.206;-6.108;2023-03-01T06:25:16;2.38;;;0.38;;
76955;SDS011;65894;53.206;-6.108;2023-03-01T06:27:43;2.42;;;0.50;;
76955;SDS011;65894;53.206;-6.108;2023-03-01T06:30:10;2.17;;;0.43;;
76955;SDS011;65894;53.206;-6.108;2023-03-01T06:32:37;2.42;;;0.40;;
76955;SDS011;65894;53.206;-6.108;2023-03-01T06:35:07;3.30;;;0.60;;
76955;SDS011;65894;53.206;-6.108;2023-03-01T06:37:33;3.15;;;0.57;;
76955;SDS011;65894;53.206;-6.108;2023-03-01T06:40:00;3.97;;;0.50;;
76955;SDS011;65894;53.206;-6.108;2023-03-01T06:42:32;12.70;;;1.33;;
76955;SDS011;65894;53.206;-6.108;2023-03-01T06:44:57;8.40;;;1.02;;
76955;SDS011;65894;53.206;-6.108;2023-03-01T06:47:23;10.20;;;0.82;;
76955;SDS011;65894;53.206;-6.108;2023-03-01T06:49:48;12.27;;;1.00;;
76955;SDS011;65894;53.206;-6.108;2023-03-01T06:52:14;8.13;;;0.93;;
76955;SDS011;65894;53.206;-6.108;2023-03-01T06:54:39;9.32;;;0.85;;
76955;SDS011;65894;53.206;-6.108;2023-03-01T06:57:05;8.40;;;0.90;;
76955;SDS011;65894;53.206;-6.108;2023-03-01T06:59:30;9.23;;;1.15;;
76955;SDS011;65894;53.206;-6.108;2023-03-01T07:01:56;4.78;;;0.60;;
76955;SDS011;65894;53.206;-6.108;2023-03-01T07:04:22;7.38;;;0.80;;
76955;SDS011;65894;53.206;-6.108;2023-03-01T07:06:47;3.47;;;0.50;;
76955;SDS011;65894;53.206;-6.108;2023-03-01T07:09:19;8.88;;;1.00;;
76955;SDS011;65894;53.206;-6.108;2023-03-01T07:11:47;4.28;;;0.50;;
76955;SDS011;65894;53.206;-6.108;2023-03-01T07:14:13;3.67;;;0.60;;
76955;SDS011;65894;53.206;-6.108;2023-03-01T07:16:38;4.38;;;0.45;;
76955;SDS011;65894;53.206;-6.108;2023-03-01T07:19:04;2.47;;;0.40;;
76955;SDS011;65894;53.206;-6.108;2023-03-01T07:21:30;4.15;;;0.60;;
76955;SDS011;65894;53.206;-6.108;2023-03-01T07:23:56;3.50;;;0.50;;
76955;SDS011;65894;53.206;-6.108;2023-03-01T07:26:21;3.08;;;0.60;;
76955;SDS011;65894;53.206;-6.108;2023-03-01T07:28:47;1.70;;;0.38;;
76955;SDS011;65894;53.206;-6.108;2023-03-01T07:31:12;3.05;;;0.50;;
76955;SDS011;65894;53.206;-6.108;2023-03-01T07:33:38;3.55;;;0.60;;
76955;SDS011;65894;53.206;-6.108;2023-03-01T07:36:04;3.13;;;0.45;;
76955;SDS011;65894;53.206;-6.108;2023-03-01T07:38:30;3.50;;;0.50;;
76955;SDS011;65894;53.206;-6.108;2023-03-01T07:40:59;3.80;;;0.68;;
76955;SDS011;65894;53.206;-6.108;2023-03-01T07:43:32;1.98;;;0.40;;
76955;SDS011;65894;53.206;-6.108;2023-03-01T07:45:58;2.42;;;0.40;;
76955;SDS011;65894;53.206;-6.108;2023-03-01T07:48:25;3.30;;;0.43;;
76955;SDS011;65894;53.206;-6.108;2023-03-01T07:50:51;4.00;;;0.50;;
76955;SDS011;65894;53.206;-6.108;2023-03-01T07:53:16;0.85;;;0.20;;
76955;SDS011;65894;53.206;-6.108;2023-03-01T07:55:42;3.72;;;0.50;;
76955;SDS011;65894;53.206;-6.108;2023-03-01T07:58:07;3.95;;;0.60;;
76955;SDS011;65894;53.206;-6.108;2023-03-01T08:00:33;1.58;;;0.32;;
76955;SDS011;65894;53.206;-6.108;2023-03-01T08:02:59;1.02;;;0.25;;
76955;SDS011;65894;53.206;-6.108;2023-03-01T08:05:26;2.00;;;0.47;;
76955;SDS011;65894;53.206;-6.108;2023-03-01T08:07:52;0.43;;;0.25;;
76955;SDS011;65894;53.206;-6.108;2023-03-01T08:10:18;1.75;;;0.30;;
76955;SDS011;65894;53.206;-6.108;2023-03-01T08:12:44;1.52;;;0.40;;
76955;SDS011;65894;53.206;-6.108;2023-03-01T08:15:09;3.55;;;0.55;;
76955;SDS011;65894;53.206;-6.108;2023-03-01T08:17:35;1.45;;;0.30;;
76955;SDS011;65894;53.206;-6.108;2023-03-01T08:20:01;2.25;;;0.38;;
76955;SDS011;65894;53.206;-6.108;2023-03-01T08:22:28;2.72;;;0.50;;
76955;SDS011;65894;53.206;-6.108;2023-03-01T08:24:54;1.83;;;0.50;;
76955;SDS011;65894;53.206;-6.108;2023-03-01T08:27:21;2.65;;;0.50;;
76955;SDS011;65894;53.206;-6.108;2023-03-01T08:29:46;2.10;;;0.30;;
76955;SDS011;65894;53.206;-6.108;2023-03-01T08:32:12;2.20;;;0.25;;
76955;SDS011;65894;53.206;-6.108;2023-03-01T08:34:37;1.80;;;0.38;;
76955;SDS011;65894;53.206;-6.108;2023-03-01T08:37:03;0.65;;;0.25;;
76955;SDS011;65894;53.206;-6.108;2023-03-01T08:39:28;0.60;;;0.38;;
76955;SDS011;65894;53.206;-6.108;2023-03-01T08:41:54;0.55;;;0.25;;
76955;SDS011;65894;53.206;-6.108;2023-03-01T08:44:20;1.15;;;0.22;;
76955;SDS011;65894;53.206;-6.108;2023-03-01T08:46:48;2.13;;;0.30;;
76955;SDS011;65894;53.206;-6.108;2023-03-01T08:49:17;1.95;;;0.30;;
76955;SDS011;65894;53.206;-6.108;2023-03-01T08:51:44;1.38;;;0.30;;
76955;SDS011;65894;53.206;-6.108;2023-03-01T08:54:11;1.00;;;0.30;;
76955;SDS011;65894;53.206;-6.108;2023-03-01T08:56:39;2.95;;;0.50;;
76955;SDS011;65894;53.206;-6.108;2023-03-01T08:59:05;2.60;;;0.50;;
76955;SDS011;65894;53.206;-6.108;2023-03-01T09:01:31;2.38;;;0.40;;
76955;SDS011;65894;53.206;-6.108;2023-03-01T09:03:57;2.60;;;0.40;;
76955;SDS011;65894;53.206;-6.108;2023-03-01T09:06:23;2.05;;;0.30;;
76955;SDS011;65894;53.206;-6.108;2023-03-01T09:08:49;2.03;;;0.30;;
76955;SDS011;65894;53.206;-6.108;2023-03-01T09:11:16;1.15;;;0.40;;
76955;SDS011;65894;53.206;-6.108;2023-03-01T09:13:43;0.73;;;0.20;;
76955;SDS011;65894;53.206;-6.108;2023-03-01T09:16:10;2.05;;;0.30;;
76955;SDS011;65894;53.206;-6.108;2023-03-01T09:18:37;1.33;;;0.40;;
76955;SDS011;65894;53.206;-6.108;2023-03-01T09:23:39;0.93;;;0.30;;
76955;SDS011;65894;53.206;-6.108;2023-03-01T09:28:37;1.20;;;0.40;;
76955;SDS011;65894;53.206;-6.108;2023-03-01T09:31:03;0.40;;;0.22;;
76955;SDS011;65894;53.206;-6.108;2023-03-01T09:33:30;1.00;;;0.38;;
76955;SDS011;65894;53.206;-6.108;2023-03-01T09:36:01;2.85;;;0.32;;
76955;SDS011;65894;53.206;-6.108;2023-03-01T09:38:30;2.22;;;0.28;;
76955;SDS011;65894;53.206;-6.108;2023-03-01T09:40:56;3.92;;;0.60;;
76955;SDS011;65894;53.206;-6.108;2023-03-01T09:45:50;1.50;;;0.30;;
76955;SDS011;65894;53.206;-6.108;2023-03-01T09:48:21;1.40;;;0.30;;
76955;SDS011;65894;53.206;-6.108;2023-03-01T09:50:49;2.63;;;0.50;;
76955;SDS011;65894;53.206;-6.108;2023-03-01T09:53:17;1.73;;;0.43;;
76955;SDS011;65894;53.206;-6.108;2023-03-01T09:58:25;2.50;;;0.30;;
76955;SDS011;65894;53.206;-6.108;2023-03-01T10:01:19;1.40;;;0.20;;
76955;SDS011;65894;53.206;-6.108;2023-03-01T10:06:37;1.50;;;0.30;;
76955;SDS011;65894;53.206;-6.108;2023-03-01T10:09:10;1.70;;;0.47;;
76955;SDS011;65894;53.206;-6.108;2023-03-01T10:11:47;1.40;;;0.28;;
76955;SDS011;65894;53.206;-6.108;2023-03-01T10:17:24;2.97;;;0.32;;
76955;SDS011;65894;53.206;-6.108;2023-03-01T10:19:55;1.00;;;0.22;;
76955;SDS011;65894;53.206;-6.108;2023-03-01T10:22:43;3.33;;;0.30;;
76955;SDS011;65894;53.206;-6.108;2023-03-01T10:25:12;0.95;;;0.28;;
76955;SDS011;65894;53.206;-6.108;2023-03-01T10:30:32;0.65;;;0.17;;
76955;SDS011;65894;53.206;-6.108;2023-03-01T10:33:05;2.10;;;0.35;;
76955;SDS011;65894;53.206;-6.108;2023-03-01T10:35:40;0.40;;;0.28;;
76955;SDS011;65894;53.206;-6.108;2023-03-01T10:38:12;0.70;;;0.30;;
76955;SDS011;65894;53.206;-6.108;2023-03-01T10:40:56;0.85;;;0.22;;
76955;SDS011;65894;53.206;-6.108;2023-03-01T10:43:23;1.83;;;0.40;;
76955;SDS011;65894;53.206;-6.108;2023-03-01T10:45:50;1.60;;;0.30;;
76955;SDS011;65894;53.206;-6.108;2023-03-01T10:48:20;1.30;;;0.28;;
76955;SDS011;65894;53.206;-6.108;2023-03-01T10:56:06;1.33;;;0.50;;
76955;SDS011;65894;53.206;-6.108;2023-03-01T10:58:33;1.83;;;0.40;;
76955;SDS011;65894;53.206;-6.108;2023-03-01T11:01:05;1.75;;;0.38;;
76955;SDS011;65894;53.206;-6.108;2023-03-01T11:03:39;2.10;;;0.28;;
76955;SDS011;65894;53.206;-6.108;2023-03-01T11:08:43;2.25;;;0.35;;
76955;SDS011;65894;53.206;-6.108;2023-03-01T11:16:59;38.42;;;3.72;;
76955;SDS011;65894;53.206;-6.108;2023-03-01T11:19:35;33.75;;;2.97;;
76955;SDS011;65894;53.206;-6.108;2023-03-01T11:22:02;29.17;;;2.55;;
76955;SDS011;65894;53.206;-6.108;2023-03-01T11:24:38;40.70;;;3.10;;
76955;SDS011;65894;53.206;-6.108;2023-03-01T11:27:26;33.95;;;3.35;;
76955;SDS011;65894;53.206;-6.108;2023-03-01T11:30:03;23.10;;;2.33;;
76955;SDS011;65894;53.206;-6.108;2023-03-01T11:33:03;18.48;;;1.83;;
76955;SDS011;65894;53.206;-6.108;2023-03-01T11:35:41;54.92;;;4.03;;
76955;SDS011;65894;53.206;-6.108;2023-03-01T11:40:47;29.42;;;3.38;;
76955;SDS011;65894;53.206;-6.108;2023-03-01T11:56:51;40.47;;;4.03;;
76955;SDS011;65894;53.206;-6.108;2023-03-01T12:31:23;25.17;;;3.13;;
76955;SDS011;65894;53.206;-6.108;2023-03-01T12:47:38;24.60;;;3.35;;
76955;SDS011;65894;53.206;-6.108;2023-03-01T12:50:28;22.40;;;2.33;;
76955;SDS011;65894;53.206;-6.108;2023-03-01T12:53:07;28.02;;;2.92;;
76955;SDS011;65894;53.206;-6.108;2023-03-01T12:55:46;24.83;;;2.22;;
76955;SDS011;65894;53.206;-6.108;2023-03-01T13:03:52;20.98;;;2.17;;
76955;SDS011;65894;53.206;-6.108;2023-03-01T13:11:41;16.85;;;2.05;;
76955;SDS011;65894;53.206;-6.108;2023-03-01T13:14:42;16.95;;;1.65;;
76955;SDS011;65894;53.206;-6.108;2023-03-01T13:17:01;14.10;;;1.90;;
76955;SDS011;65894;53.206;-6.108;2023-03-01T13:19:27;14.23;;;1.50;;
76955;SDS011;65894;53.206;-6.108;2023-03-01T13:21:57;14.63;;;1.15;;
76955;SDS011;65894;53.206;-6.108;2023-03-01T13:32:34;11.98;;;1.23;;
76955;SDS011;65894;53.206;-6.108;2023-03-01T13:37:40;5.60;;;0.77;;
76955;SDS011;65894;53.206;-6.108;2023-03-01T13:42:52;8.10;;;1.30;;
76955;SDS011;65894;53.206;-6.108;2023-03-01T13:45:20;7.05;;;0.90;;
76955;SDS011;65894;53.206;-6.108;2023-03-01T13:48:09;6.20;;;0.77;;
76955;SDS011;65894;53.206;-6.108;2023-03-01T13:50:48;7.20;;;1.58;;
76955;SDS011;65894;53.206;-6.108;2023-03-01T13:53:24;8.05;;;0.93;;
76955;SDS011;65894;53.206;-6.108;2023-03-01T13:55:52;5.82;;;0.80;;
76955;SDS011;65894;53.206;-6.108;2023-03-01T13:58:26;7.18;;;1.00;;
76955;SDS011;65894;53.206;-6.108;2023-03-01T14:00:58;4.75;;;0.60;;
76955;SDS011;65894;53.206;-6.108;2023-03-01T14:03:27;4.70;;;1.17;;
76955;SDS011;65894;53.206;-6.108;2023-03-01T14:06:02;5.40;;;1.08;;
76955;SDS011;65894;53.206;-6.108;2023-03-01T14:08:35;7.43;;;0.70;;
76955;SDS011;65894;53.206;-6.108;2023-03-01T14:14:10;5.35;;;1.13;;
76955;SDS011;65894;53.206;-6.108;2023-03-01T14:19:45;5.55;;;0.70;;
76955;SDS011;65894;53.206;-6.108;2023-03-01T14:24:58;10.65;;;1.10;;
76955;SDS011;65894;53.206;-6.108;2023-03-01T14:27:26;9.75;;;0.82;;
76955;SDS011;65894;53.206;-6.108;2023-03-01T14:30:01;10.75;;;1.30;;
76955;SDS011;65894;53.206;-6.108;2023-03-01T14:32:35;6.05;;;0.60;;
76955;SDS011;65894;53.206;-6.108;2023-03-01T14:35:00;7.05;;;1.10;;
76955;SDS011;65894;53.206;-6.108;2023-03-01T14:39:53;5.28;;;0.68;;
76955;SDS011;65894;53.206;-6.108;2023-03-01T14:42:21;6.63;;;0.68;;
76955;SDS011;65894;53.206;-6.108;2023-03-01T14:44:50;5.90;;;0.80;;
76955;SDS011;65894;53.206;-6.108;2023-03-01T14:47:30;5.05;;;0.80;;
76955;SDS011;65894;53.206;-6.108;2023-03-01T14:50:15;7.45;;;1.02;;
76955;SDS011;65894;53.206;-6.108;2023-03-01T14:52:44;4.43;;;0.70;;
76955;SDS011;65894;53.206;-6.108;2023-03-01T14:55:15;4.45;;;0.80;;
76955;SDS011;65894;53.206;-6.108;2023-03-01T14:57:48;5.22;;;0.55;;
76955;SDS011;65894;53.206;-6.108;2023-03-01T15:00:20;7.07;;;1.15;;
76955;SDS011;65894;53.206;-6.108;2023-03-01T15:02:48;5.43;;;0.55;;
76955;SDS011;65894;53.206;-6.108;2023-03-01T15:05:18;9.63;;;1.10;;
76955;SDS011;65894;53.206;-6.108;2023-03-01T15:07:58;4.55;;;0.60;;
76955;SDS011;65894;53.206;-6.108;2023-03-01T15:10:33;11.57;;;0.90;;
76955;SDS011;65894;53.206;-6.108;2023-03-01T15:13:10;6.32;;;0.85;;
76955;SDS011;65894;53.206;-6.108;2023-03-01T15:15:45;10.07;;;1.00;;
76955;SDS011;65894;53.206;-6.108;2023-03-01T15:18:18;8.10;;;1.10;;
76955;SDS011;65894;53.206;-6.108;2023-03-01T15:20:46;7.00;;;1.17;;
76955;SDS011;65894;53.206;-6.108;2023-03-01T15:23:20;4.43;;;0.60;;
76955;SDS011;65894;53.206;-6.108;2023-03-01T15:25:51;8.40;;;1.20;;
76955;SDS011;65894;53.206;-6.108;2023-03-01T15:28:36;5.05;;;0.80;;
76955;SDS011;65894;53.206;-6.108;2023-03-01T15:31:37;6.32;;;0.80;;
76955;SDS011;65894;53.206;-6.108;2023-03-01T15:34:31;3.15;;;0.40;;
76955;SDS011;65894;53.206;-6.108;2023-03-01T15:36:51;5.88;;;0.70;;
76955;SDS011;65894;53.206;-6.108;2023-03-01T15:39:35;5.15;;;0.68;;
76955;SDS011;65894;53.206;-6.108;2023-03-01T15:42:04;4.10;;;0.73;;
76955;SDS011;65894;53.206;-6.108;2023-03-01T15:44:32;6.97;;;0.60;;
76955;SDS011;65894;53.206;-6.108;2023-03-01T15:47:00;3.58;;;0.60;;
76955;SDS011;65894;53.206;-6.108;2023-03-01T15:49:40;3.60;;;0.57;;
76955;SDS011;65894;53.206;-6.108;2023-03-01T15:52:18;4.22;;;0.43;;
76955;SDS011;65894;53.206;-6.108;2023-03-01T15:54:46;4.82;;;0.63;;
76955;SDS011;65894;53.206;-6.108;2023-03-01T15:57:12;4.82;;;0.60;;
76955;SDS011;65894;53.206;-6.108;2023-03-01T15:59:40;3.80;;;0.57;;
76955;SDS011;65894;53.206;-6.108;2023-03-01T16:02:11;3.70;;;0.47;;
76955;SDS011;65894;53.206;-6.108;2023-03-01T16:04:38;4.50;;;0.50;;
76955;SDS011;65894;53.206;-6.108;2023-03-01T16:07:04;3.95;;;0.60;;
76955;SDS011;65894;53.206;-6.108;2023-03-01T16:09:30;3.20;;;0.40;;
76955;SDS011;65894;53.206;-6.108;2023-03-01T16:11:56;3.75;;;0.50;;
76955;SDS011;65894;53.206;-6.108;2023-03-01T16:14:21;2.65;;;0.40;;
76955;SDS011;65894;53.206;-6.108;2023-03-01T16:16:47;1.85;;;0.35;;
76955;SDS011;65894;53.206;-6.108;2023-03-01T16:19:14;2.72;;;0.38;;
76955;SDS011;65894;53.206;-6.108;2023-03-01T16:21:40;2.08;;;0.40;;
76955;SDS011;65894;53.206;-6.108;2023-03-01T16:24:07;3.60;;;0.60;;
76955;SDS011;65894;53.206;-6.108;2023-03-01T16:26:33;2.45;;;0.40;;
76955;SDS011;65894;53.206;-6.108;2023-03-01T16:29:00;6.93;;;1.00;;
76955;SDS011;65894;53.206;-6.108;2023-03-01T16:31:25;7.03;;;1.10;;
76955;SDS011;65894;53.206;-6.108;2023-03-01T16:33:55;4.15;;;0.50;;
76955;SDS011;65894;53.206;-6.108;2023-03-01T16:38:49;3.22;;;0.40;;
76955;SDS011;65894;53.206;-6.108;2023-03-01T16:41:17;4.80;;;0.55;;
76955;SDS011;65894;53.206;-6.108;2023-03-01T16:43:43;10.73;;;1.02;;
76955;SDS011;65894;53.206;-6.108;2023-03-01T16:46:29;8.10;;;0.80;;
76955;SDS011;65894;53.206;-6.108;2023-03-01T16:48:55;7.40;;;0.98;;
76955;SDS011;65894;53.206;-6.108;2023-03-01T16:51:21;8.98;;;0.80;;
76955;SDS011;65894;53.206;-6.108;2023-03-01T16:53:48;9.40;;;1.20;;
76955;SDS011;65894;53.206;-6.108;2023-03-01T16:56:14;8.13;;;1.05;;
76955;SDS011;65894;53.206;-6.108;2023-03-01T16:58:41;8.98;;;0.90;;
76955;SDS011;65894;53.206;-6.108;2023-03-01T17:01:14;4.40;;;0.80;;
76955;SDS011;65894;53.206;-6.108;2023-03-01T17:03:42;6.05;;;0.90;;
76955;SDS011;65894;53.206;-6.108;2023-03-01T17:06:10;5.47;;;0.63;;
76955;SDS011;65894;53.206;-6.108;2023-03-01T17:08:37;5.93;;;0.88;;
76955;SDS011;65894;53.206;-6.108;2023-03-01T17:11:07;4.50;;;0.60;;
76955;SDS011;65894;53.206;-6.108;2023-03-01T17:13:41;4.13;;;0.52;;
76955;SDS011;65894;53.206;-6.108;2023-03-01T17:16:07;2.78;;;0.52;;
76955;SDS011;65894;53.206;-6.108;2023-03-01T17:18:35;6.55;;;0.80;;